createdAt,value
2024-05-09T00:01:53.535Z,99.90
2024-05-09T00:04:23.625Z,99.90
2024-05-09T00:06:53.334Z,99.90
2024-05-09T00:09:23.710Z,99.90
2024-05-09T00:11:56.551Z,99.90
2024-05-09T00:14:26.765Z,99.90
2024-05-09T00:16:56.786Z,99.90
2024-05-09T00:19:28.009Z,99.90
2024-05-09T00:21:57.874Z,99.90
2024-05-09T00:24:27.591Z,99.90
2024-05-09T00:27:00.602Z,99.90
2024-05-09T00:29:30.666Z,99.90
2024-05-09T00:32:00.877Z,99.90
2024-05-09T00:34:31.911Z,99.90
2024-05-09T00:37:01.674Z,99.90
2024-05-09T00:39:31.627Z,99.90
2024-05-09T00:42:04.135Z,99.90
2024-05-09T00:44:34.573Z,99.90
2024-05-09T00:47:04.988Z,99.90
2024-05-09T00:49:36.053Z,99.90
2024-05-09T00:52:06.943Z,99.90
2024-05-09T00:54:36.958Z,99.90
2024-05-09T00:57:09.535Z,99.90
2024-05-09T00:59:39.507Z,99.90
2024-05-09T01:02:09.455Z,99.90
2024-05-09T01:04:39.387Z,99.90
2024-05-09T01:07:09.480Z,99.90
2024-05-09T01:09:41.983Z,99.90
2024-05-09T01:12:14.519Z,99.90
2024-05-09T01:14:44.725Z,99.90
2024-05-09T01:17:15.213Z,99.90
2024-05-09T01:19:46.926Z,99.90
2024-05-09T01:22:16.791Z,99.90
2024-05-09T01:24:49.713Z,99.90
2024-05-09T01:27:19.396Z,99.90
2024-05-09T01:29:49.183Z,99.90
2024-05-09T01:32:19.066Z,99.90
2024-05-09T01:34:49.125Z,99.90
2024-05-09T01:37:18.854Z,99.90
2024-05-09T01:39:51.607Z,99.90
2024-05-09T01:42:21.365Z,99.90
2024-05-09T01:44:51.115Z,99.90
2024-05-09T01:47:21.288Z,99.90
2024-05-09T01:49:51.946Z,99.90
2024-05-09T01:52:22.595Z,99.90
2024-05-09T01:54:54.960Z,99.90
2024-05-09T01:57:24.711Z,99.90
2024-05-09T01:59:54.842Z,99.90
2024-05-09T02:02:24.633Z,99.90
2024-05-09T02:04:55.070Z,99.90
2024-05-09T02:07:24.867Z,99.90
2024-05-09T02:09:57.248Z,99.90
2024-05-09T02:12:29.964Z,99.90
2024-05-09T02:14:59.988Z,99.90
2024-05-09T02:17:29.857Z,99.90
2024-05-09T02:19:59.793Z,99.90
2024-05-09T02:22:29.482Z,99.90
2024-05-09T02:25:02.774Z,99.90
2024-05-09T02:27:32.549Z,99.90
2024-05-09T02:30:04.739Z,99.90
2024-05-09T02:32:36.449Z,99.90
2024-05-09T02:35:06.581Z,99.90
2024-05-09T02:37:33.841Z,99.90
2024-05-09T02:40:09.125Z,99.90
2024-05-09T02:42:38.602Z,99.90
2024-05-09T02:45:09.181Z,99.90
2024-05-09T02:47:37.374Z,99.90
2024-05-09T02:50:08.360Z,99.90
2024-05-09T02:52:35.725Z,99.90
2024-05-09T02:55:08.320Z,99.90
2024-05-09T02:57:35.489Z,99.90
2024-05-09T03:00:06.192Z,99.90
2024-05-09T03:02:35.517Z,99.90
2024-05-09T03:05:05.377Z,99.90
2024-05-09T03:07:32.755Z,99.90
2024-05-09T03:10:03.360Z,99.90
2024-05-09T03:12:35.816Z,99.90
2024-05-09T03:15:07.689Z,99.90
2024-05-09T03:17:35.499Z,99.90
2024-05-09T03:20:11.660Z,99.90
2024-05-09T03:22:44.929Z,99.90
2024-05-09T03:25:14.882Z,99.90
2024-05-09T03:27:44.610Z,99.90
2024-05-09T03:30:26.031Z,99.90
2024-05-09T03:33:01.553Z,99.90
2024-05-09T03:35:31.578Z,99.90
2024-05-09T03:38:01.626Z,99.90
2024-05-09T03:40:31.512Z,99.90
2024-05-09T03:43:01.328Z,99.90
2024-05-09T03:45:32.057Z,99.90
2024-05-09T03:47:59.465Z,99.90
2024-05-09T03:50:33.958Z,99.90
2024-05-09T03:53:03.230Z,99.90
2024-05-09T03:55:33.615Z,99.90
2024-05-09T03:58:03.447Z,99.90
2024-05-09T04:00:38.077Z,99.90
2024-05-09T04:03:09.664Z,99.90
2024-05-09T04:05:43.038Z,99.90
2024-05-09T04:08:13.922Z,99.90
2024-05-09T04:10:44.348Z,99.90
2024-05-09T04:13:14.720Z,99.90
2024-05-09T04:15:44.565Z,99.90
2024-05-09T04:18:12.782Z,99.90
2024-05-09T04:20:43.178Z,99.90
2024-05-09T04:23:12.256Z,99.90
2024-05-09T04:25:45.470Z,99.90
2024-05-09T04:28:15.830Z,99.90
2024-05-09T04:30:46.463Z,99.90
2024-05-09T04:33:15.350Z,99.90
2024-05-09T04:35:45.800Z,99.90
2024-05-09T04:38:14.618Z,99.90
2024-05-09T04:40:45.481Z,99.90
2024-05-09T04:43:19.678Z,99.90
2024-05-09T04:45:49.771Z,99.90
2024-05-09T04:48:17.358Z,99.90
2024-05-09T04:50:47.939Z,99.90
2024-05-09T04:53:17.528Z,99.90
2024-05-09T04:55:47.643Z,99.90
2024-05-09T04:58:17.715Z,99.90
2024-05-09T05:00:47.772Z,99.90
2024-05-09T05:03:16.658Z,99.90
2024-05-09T05:05:47.258Z,99.90
2024-05-09T05:08:16.130Z,99.90
2024-05-09T05:10:48.665Z,99.90
2024-05-09T05:13:20.970Z,99.90
2024-05-09T05:15:55.755Z,99.90
2024-05-09T05:18:24.806Z,99.90
2024-05-09T05:20:54.903Z,99.90
2024-05-09T05:23:23.137Z,99.90
2024-05-09T05:25:55.367Z,99.90
2024-05-09T05:28:25.555Z,99.90
2024-05-09T05:30:55.399Z,99.90
2024-05-09T05:33:25.662Z,99.90
2024-05-09T05:35:52.981Z,99.90
2024-05-09T05:38:25.024Z,99.90
2024-05-09T05:40:54.989Z,99.90
2024-05-09T05:43:27.735Z,99.90
2024-05-09T05:45:54.888Z,99.90
2024-05-09T05:48:24.875Z,99.90
2024-05-09T05:50:52.277Z,99.90
2024-05-09T05:53:22.420Z,99.90
2024-05-09T05:55:50.229Z,99.90
2024-05-09T05:58:20.356Z,99.90
2024-05-09T06:00:57.547Z,99.90
2024-05-09T06:03:24.727Z,99.90
2024-05-09T06:05:54.691Z,99.90
2024-05-09T06:08:22.123Z,99.90
2024-05-09T06:10:52.271Z,99.90
2024-05-09T06:13:21.087Z,99.90
2024-05-09T06:15:53.420Z,99.90
2024-05-09T06:18:21.182Z,99.90
2024-05-09T06:20:51.614Z,99.90
2024-05-09T06:23:18.900Z,99.90
2024-05-09T06:25:48.910Z,99.90
2024-05-09T06:28:16.298Z,99.90
2024-05-09T06:30:45.997Z,99.90
2024-05-09T06:33:16.756Z,99.90
2024-05-09T06:35:47.218Z,99.90
2024-05-09T06:38:14.546Z,99.90
2024-05-09T06:40:45.092Z,99.90
2024-05-09T06:43:13.061Z,99.90
2024-05-09T06:45:43.370Z,99.90
2024-05-09T06:48:10.787Z,99.90
2024-05-09T06:50:44.248Z,99.90
2024-05-09T06:53:14.821Z,99.90
2024-05-09T06:55:45.301Z,99.90
2024-05-09T06:58:13.207Z,99.90
2024-05-09T07:00:42.977Z,99.90
2024-05-09T07:03:11.127Z,99.90
2024-05-09T07:05:46.030Z,99.90
2024-05-09T07:08:14.191Z,99.90
2024-05-09T07:10:44.532Z,99.90
2024-05-09T07:13:14.180Z,99.90
2024-05-09T07:15:45.123Z,99.90
2024-05-09T07:18:15.669Z,99.90
2024-05-09T07:20:49.862Z,99.90
2024-05-09T07:23:18.220Z,99.90
2024-05-09T07:25:48.453Z,99.90
2024-05-09T07:28:17.017Z,99.90
2024-05-09T07:30:47.859Z,99.90
2024-05-09T07:33:19.543Z,99.90
2024-05-09T07:35:53.414Z,99.90
2024-05-09T07:38:20.924Z,99.90
2024-05-09T07:40:51.394Z,99.90
2024-05-09T07:43:19.143Z,99.90
2024-05-09T07:45:53.598Z,99.90
2024-05-09T07:53:07.553Z,99.90
2024-05-09T07:53:50.808Z,99.90
2024-05-09T07:56:24.380Z,99.90
2024-05-09T07:58:52.921Z,99.90
2024-05-09T08:01:25.860Z,99.90
2024-05-09T08:03:53.558Z,99.90
2024-05-09T08:06:27.283Z,99.90
2024-05-09T08:08:54.810Z,99.90
2024-05-09T08:11:24.688Z,99.90
2024-05-09T08:13:52.285Z,99.90
2024-05-09T08:16:22.183Z,99.90
2024-05-09T08:18:49.691Z,99.90
2024-05-09T08:21:19.515Z,99.90
2024-05-09T08:23:49.434Z,99.90
2024-05-09T08:26:19.851Z,99.90
2024-05-09T08:28:47.414Z,99.90
2024-05-09T08:31:17.269Z,99.90
2024-05-09T08:33:45.322Z,99.90
2024-05-09T08:36:16.311Z,99.90
2024-05-09T08:38:43.705Z,99.90
2024-05-09T08:41:18.807Z,99.90
2024-05-09T08:43:46.907Z,99.90
2024-05-09T08:46:18.934Z,99.90
2024-05-09T08:48:48.441Z,99.90
2024-05-09T08:51:18.564Z,99.90
2024-05-09T08:53:45.749Z,99.90
2024-05-09T08:56:20.168Z,99.90
2024-05-09T08:58:50.049Z,99.90
2024-05-09T09:01:21.576Z,99.90
2024-05-09T09:03:51.019Z,99.90
2024-05-09T09:06:24.343Z,99.90
2024-05-09T09:08:54.142Z,99.90
2024-05-09T09:11:26.644Z,99.90
2024-05-09T09:13:54.017Z,99.90
2024-05-09T09:16:35.345Z,99.90
2024-05-09T09:19:03.533Z,99.90
2024-05-09T09:21:33.432Z,99.90
2024-05-09T09:24:00.633Z,99.90
2024-05-09T09:26:33.478Z,99.90
2024-05-09T09:29:02.047Z,99.90
2024-05-09T09:31:33.168Z,99.90
2024-05-09T09:34:07.181Z,99.90
2024-05-09T09:36:40.951Z,99.90
2024-05-09T09:39:12.357Z,99.90
2024-05-09T09:41:49.945Z,99.90
2024-05-09T09:44:24.920Z,99.90
2024-05-09T09:46:58.841Z,99.90
2024-05-09T09:49:26.863Z,99.90
2024-05-09T09:51:57.180Z,99.90
2024-05-09T09:54:26.093Z,99.90
2024-05-09T09:56:59.177Z,99.90
2024-05-09T09:59:26.526Z,99.90
2024-05-09T10:01:56.454Z,99.90
2024-05-09T10:04:24.208Z,99.90
2024-05-09T10:06:57.163Z,99.90
2024-05-09T10:09:24.674Z,99.90
2024-05-09T10:11:59.985Z,99.90
2024-05-09T10:14:40.189Z,99.90
2024-05-09T10:17:11.772Z,99.90
2024-05-09T10:19:39.343Z,99.90
2024-05-09T10:22:10.301Z,99.90
2024-05-09T10:24:48.549Z,99.90
2024-05-09T10:27:19.867Z,99.90
2024-05-09T10:29:57.860Z,99.80
2024-05-09T10:32:29.688Z,97.80
2024-05-09T10:35:01.283Z,99.90
2024-05-09T10:37:31.597Z,99.10
2024-05-09T10:39:59.722Z,95.00
2024-05-09T10:42:31.363Z,92.40
2024-05-09T10:45:02.354Z,96.40
2024-05-09T10:47:33.230Z,95.40
2024-05-09T10:50:01.202Z,91.90
2024-05-09T10:52:31.117Z,91.50
2024-05-09T10:54:59.936Z,91.30
2024-05-09T10:57:40.917Z,93.30
2024-05-09T11:00:19.462Z,92.00
2024-05-09T11:02:58.164Z,92.90
2024-05-09T11:05:26.334Z,91.70
2024-05-09T11:07:56.399Z,94.20
2024-05-09T11:10:27.928Z,93.50
2024-05-09T11:13:03.777Z,91.60
2024-05-09T11:15:41.458Z,90.30
2024-05-09T11:18:25.451Z,93.10
2024-05-09T11:20:54.625Z,92.20
2024-05-09T11:23:26.096Z,91.10
2024-05-09T11:25:54.811Z,90.40
2024-05-09T11:28:25.259Z,90.30
2024-05-09T11:31:05.531Z,94.00
2024-05-09T11:33:35.335Z,94.50
2024-05-09T11:36:02.691Z,93.60
2024-05-09T11:38:32.628Z,94.30
2024-05-09T11:41:00.048Z,94.10
2024-05-09T11:43:30.310Z,93.90
2024-05-09T11:46:05.872Z,86.80
2024-05-09T11:48:36.208Z,89.70
2024-05-09T11:51:03.948Z,90.00
2024-05-09T11:53:33.934Z,80.50
2024-05-09T11:56:01.126Z,91.70
2024-05-09T11:58:34.327Z,88.60
2024-05-09T12:01:05.378Z,89.10
2024-05-09T12:03:37.900Z,81.60
2024-05-09T12:06:06.054Z,88.60
2024-05-09T12:08:36.579Z,86.30
2024-05-09T12:11:04.525Z,86.60
2024-05-09T12:13:34.343Z,85.00
2024-05-09T12:16:05.456Z,79.70
2024-05-09T12:18:38.108Z,82.30
2024-05-09T12:21:06.039Z,81.10
2024-05-09T12:23:36.126Z,85.80
2024-05-09T12:26:04.091Z,85.00
2024-05-09T12:28:34.563Z,81.80
2024-05-09T12:31:05.122Z,84.00
2024-05-09T12:33:35.753Z,87.90
2024-05-09T12:36:03.594Z,80.80
2024-05-09T12:38:33.381Z,82.60
2024-05-09T12:41:00.856Z,80.20
2024-05-09T12:43:30.691Z,79.20
2024-05-09T12:45:58.257Z,78.10
2024-05-09T12:48:30.782Z,75.00
2024-05-09T12:50:58.074Z,80.00
2024-05-09T12:53:28.688Z,78.80
2024-05-09T12:56:00.119Z,81.30
2024-05-09T12:58:35.078Z,81.20
2024-05-09T13:01:02.542Z,78.70
2024-05-09T13:03:35.160Z,77.70
2024-05-09T13:06:02.443Z,75.60
2024-05-09T13:08:32.643Z,75.40
2024-05-09T13:10:59.925Z,78.40
2024-05-09T13:13:30.790Z,79.20
2024-05-09T13:15:58.385Z,79.40
2024-05-09T13:18:28.749Z,80.80
2024-05-09T13:20:58.584Z,81.10
2024-05-09T13:23:28.297Z,81.50
2024-05-09T13:25:55.810Z,85.20
2024-05-09T13:28:25.994Z,84.60
2024-05-09T13:30:54.206Z,90.50
2024-05-09T13:33:24.113Z,89.00
2024-05-09T13:35:52.042Z,88.10
2024-05-09T13:38:24.413Z,84.50
2024-05-09T13:40:52.111Z,83.50
2024-05-09T13:43:23.383Z,82.90
2024-05-09T13:45:51.978Z,83.10
2024-05-09T13:48:22.501Z,81.30
2024-05-09T13:50:50.308Z,81.40
2024-05-09T13:53:20.039Z,88.40
2024-05-09T13:55:50.217Z,85.00
2024-05-09T13:58:20.839Z,90.60
2024-05-09T14:00:49.312Z,86.10
2024-05-09T14:03:21.541Z,83.20
2024-05-09T14:05:50.413Z,87.80
2024-05-09T14:08:22.257Z,84.90
2024-05-09T14:10:54.205Z,81.80
2024-05-09T14:13:24.821Z,81.20
2024-05-09T14:15:52.167Z,80.80
2024-05-09T14:18:22.683Z,81.40
2024-05-09T14:20:50.280Z,81.90
2024-05-09T14:23:20.865Z,84.70
2024-05-09T14:25:53.902Z,82.30
2024-05-09T14:28:26.256Z,82.80
2024-05-09T14:30:57.337Z,89.70
2024-05-09T14:33:27.873Z,87.70
2024-05-09T14:35:55.278Z,90.60
2024-05-09T14:38:25.829Z,85.90
2024-05-09T14:40:56.214Z,87.70
2024-05-09T14:43:26.514Z,91.50
2024-05-09T14:45:54.188Z,93.30
2024-05-09T14:48:24.167Z,81.70
2024-05-09T14:50:53.053Z,86.50
2024-05-09T14:53:23.657Z,91.20
2024-05-09T14:55:51.247Z,90.40
2024-05-09T14:58:24.717Z,91.20
2024-05-09T15:00:52.942Z,92.80
2024-05-09T15:03:23.636Z,92.90
2024-05-09T15:05:51.882Z,78.60
2024-05-09T15:08:22.776Z,78.40
2024-05-09T15:10:52.254Z,80.90
2024-05-09T15:13:25.486Z,83.60
2024-05-09T15:15:53.279Z,75.60
2024-05-09T15:18:23.279Z,77.90
2024-05-09T15:20:52.307Z,92.30
2024-05-09T15:23:22.560Z,93.30
2024-05-09T15:25:50.547Z,94.20
2024-05-09T15:28:20.739Z,94.60
2024-05-09T15:30:50.862Z,95.50
2024-05-09T15:33:20.952Z,88.30
2024-05-09T15:35:48.275Z,92.30
2024-05-09T15:38:19.314Z,93.80
2024-05-09T15:40:47.880Z,94.80
2024-05-09T15:43:18.179Z,95.40
2024-05-09T15:45:46.426Z,94.60
2024-05-09T15:48:19.204Z,94.90
2024-05-09T15:50:47.451Z,96.60
2024-05-09T15:53:17.848Z,94.00
2024-05-09T15:55:45.167Z,93.50
2024-05-09T15:58:16.088Z,96.50
2024-05-09T16:00:45.593Z,95.50
2024-05-09T16:03:21.199Z,97.50
2024-05-09T16:05:48.958Z,96.50
2024-05-09T16:08:19.229Z,98.30
2024-05-09T16:10:47.720Z,96.70
2024-05-09T16:13:19.804Z,99.00
2024-05-09T16:15:48.311Z,99.20
2024-05-09T16:18:21.618Z,96.80
2024-05-09T16:20:50.252Z,96.60
2024-05-09T16:23:20.327Z,95.40
2024-05-09T16:25:48.392Z,94.10
2024-05-09T16:28:19.403Z,92.40
2024-05-09T16:30:47.520Z,91.60
2024-05-09T16:33:23.702Z,93.30
2024-05-09T16:35:51.452Z,93.50
2024-05-09T16:38:22.009Z,94.20
2024-05-09T16:40:51.137Z,92.60
2024-05-09T16:43:21.799Z,93.20
2024-05-09T16:45:49.713Z,95.60
2024-05-09T16:48:23.495Z,96.80
2024-05-09T16:50:50.685Z,94.80
2024-05-09T16:53:22.414Z,93.40
2024-05-09T16:55:49.726Z,95.30
2024-05-09T16:58:19.656Z,96.10
2024-05-09T17:00:47.077Z,96.30
2024-05-09T17:03:17.199Z,97.40
2024-05-09T17:05:48.030Z,96.40
2024-05-09T17:08:20.439Z,97.50
2024-05-09T17:10:57.450Z,96.00
2024-05-09T17:13:28.064Z,97.30
2024-05-09T17:15:58.444Z,95.90
2024-05-09T17:18:29.107Z,97.40
2024-05-09T17:21:00.250Z,97.40
2024-05-09T17:23:34.334Z,98.20
2024-05-09T17:26:02.541Z,98.20
2024-05-09T17:28:32.498Z,99.80
2024-05-09T17:31:01.088Z,99.90
2024-05-09T17:33:32.069Z,99.90
2024-05-09T17:36:02.159Z,99.90
2024-05-09T17:38:32.383Z,99.90
2024-05-09T17:40:59.788Z,99.90
2024-05-09T17:43:31.229Z,99.90
2024-05-09T17:45:58.681Z,99.90
2024-05-09T17:48:28.623Z,99.90
2024-05-09T17:50:55.934Z,99.90
2024-05-09T17:53:28.368Z,99.90
2024-05-09T17:55:56.504Z,99.90
2024-05-09T17:58:26.427Z,99.90
2024-05-09T18:00:54.072Z,99.90
2024-05-09T18:03:26.241Z,99.90
2024-05-09T18:05:53.809Z,99.90
2024-05-09T18:08:23.764Z,99.90
2024-05-09T18:10:55.340Z,99.90
2024-05-09T18:13:26.257Z,99.90
2024-05-09T18:15:53.748Z,99.90
2024-05-09T18:18:23.646Z,99.90
2024-05-09T18:20:53.899Z,99.90
2024-05-09T18:23:23.691Z,99.90
2024-05-09T18:25:55.057Z,99.90
2024-05-09T18:28:25.370Z,99.90
2024-05-09T18:30:52.696Z,99.90
2024-05-09T18:33:24.383Z,99.90
2024-05-09T18:35:51.881Z,99.90
2024-05-09T18:38:25.543Z,99.90
2024-05-09T18:40:55.524Z,99.90
2024-05-09T18:43:31.154Z,99.90
2024-05-09T18:46:06.428Z,99.90
2024-05-09T18:48:39.684Z,99.90
2024-05-09T18:51:06.965Z,99.90
2024-05-09T18:53:36.759Z,99.90
2024-05-09T18:56:07.796Z,99.90
2024-05-09T18:58:37.640Z,99.90
2024-05-09T19:01:05.874Z,99.90
2024-05-09T19:03:36.609Z,99.90
2024-05-09T19:06:05.353Z,99.90
2024-05-09T19:08:36.677Z,99.90
2024-05-09T19:11:06.639Z,99.90
2024-05-09T19:13:36.495Z,99.90
2024-05-09T19:16:04.457Z,99.90
2024-05-09T19:18:34.431Z,99.90
2024-05-09T19:21:01.770Z,99.90
2024-05-09T19:23:38.064Z,99.90
2024-05-09T19:26:08.866Z,99.90
2024-05-09T19:28:40.437Z,99.90
2024-05-09T19:31:07.633Z,99.90
2024-05-09T19:33:38.375Z,99.90
2024-05-09T19:36:06.994Z,99.90
2024-05-09T19:38:38.626Z,99.90
2024-05-09T19:41:08.599Z,99.90
2024-05-09T19:43:39.449Z,99.90
2024-05-09T19:46:06.781Z,99.90
2024-05-09T19:48:36.663Z,99.90
2024-05-09T19:51:04.027Z,99.90
2024-05-09T19:53:34.015Z,99.90
2024-05-09T19:56:02.217Z,99.90
2024-05-09T19:58:36.861Z,99.90
2024-05-09T20:01:04.586Z,99.90
2024-05-09T20:03:37.712Z,99.90
2024-05-09T20:06:05.324Z,99.90
2024-05-09T20:08:35.021Z,99.90
2024-05-09T20:11:02.272Z,99.90
2024-05-09T20:13:34.777Z,99.90
2024-05-09T20:16:02.212Z,99.90
2024-05-09T20:18:32.079Z,99.90
2024-05-09T20:21:00.134Z,99.90
2024-05-09T20:23:30.509Z,99.90
2024-05-09T20:25:58.625Z,99.90
2024-05-09T20:28:28.594Z,99.90
2024-05-09T20:30:58.718Z,99.90
2024-05-09T20:33:29.524Z,99.90
2024-05-09T20:36:01.636Z,99.90
2024-05-09T20:38:32.171Z,99.90
2024-05-09T20:40:59.316Z,99.90
2024-05-09T20:43:29.198Z,99.90
2024-05-09T20:45:59.230Z,99.90
2024-05-09T20:48:29.358Z,99.90
2024-05-09T20:50:57.188Z,99.90
2024-05-09T20:53:27.010Z,99.90
2024-05-09T20:55:54.451Z,99.90
2024-05-09T20:58:25.211Z,99.90
2024-05-09T21:00:53.077Z,99.90
2024-05-09T21:03:25.678Z,99.90
2024-05-09T21:05:54.219Z,99.90
2024-05-09T21:08:25.214Z,99.90
2024-05-09T21:10:53.050Z,99.90
2024-05-09T21:13:22.920Z,99.90
2024-05-09T21:15:50.363Z,99.90
2024-05-09T21:18:20.292Z,99.90
2024-05-09T21:20:50.435Z,99.90
2024-05-09T21:23:22.720Z,99.90
2024-05-09T21:25:50.807Z,99.90
2024-05-09T21:28:20.906Z,99.90
2024-05-09T21:30:48.524Z,99.90
2024-05-09T21:33:19.556Z,99.90
2024-05-09T21:35:49.335Z,99.90
2024-05-09T21:38:19.495Z,99.90
2024-05-09T21:40:46.841Z,99.90
2024-05-09T21:43:16.907Z,99.90
2024-05-09T21:45:44.604Z,99.90
2024-05-09T21:48:15.584Z,99.90
2024-05-09T21:50:43.470Z,99.90
2024-05-09T21:53:16.493Z,99.90
2024-05-09T21:55:43.652Z,99.90
2024-05-09T21:58:14.711Z,99.90
2024-05-09T22:00:45.512Z,99.90
2024-05-09T22:03:17.336Z,99.90
2024-05-09T22:05:45.614Z,99.90
2024-05-09T22:08:18.342Z,99.90
2024-05-09T22:10:45.709Z,99.90
2024-05-09T22:13:16.827Z,99.90
2024-05-09T22:15:44.407Z,99.90
2024-05-09T22:18:14.401Z,99.90
2024-05-09T22:20:45.349Z,99.90
2024-05-09T22:23:18.868Z,99.90
2024-05-09T22:25:46.041Z,99.90
2024-05-09T22:28:18.237Z,99.90
2024-05-09T22:30:47.126Z,99.90
2024-05-09T22:33:18.018Z,99.90
2024-05-09T22:35:46.241Z,99.90
2024-05-09T22:38:20.391Z,99.90
2024-05-09T22:40:49.840Z,99.90
2024-05-09T22:43:23.988Z,99.90
2024-05-09T22:45:52.947Z,99.90
2024-05-09T22:48:23.682Z,99.90
2024-05-09T22:50:51.672Z,99.90
2024-05-09T22:53:24.720Z,99.90
2024-05-09T22:55:52.165Z,99.90
2024-05-09T22:58:22.368Z,99.90
2024-05-09T23:00:50.091Z,99.90
2024-05-09T23:03:21.906Z,99.90
2024-05-09T23:05:49.742Z,99.90
2024-05-09T23:08:19.502Z,99.90
2024-05-09T23:10:49.372Z,99.90
2024-05-09T23:13:19.451Z,99.90
2024-05-09T23:15:47.199Z,99.90
2024-05-09T23:18:17.013Z,99.90
2024-05-09T23:20:44.257Z,99.90
2024-05-09T23:23:14.024Z,99.90
2024-05-09T23:25:41.890Z,99.90
2024-05-09T23:28:14.935Z,99.90
2024-05-09T23:30:42.600Z,99.90
2024-05-09T23:33:15.282Z,99.90
2024-05-09T23:35:43.980Z,99.90
2024-05-09T23:38:15.178Z,99.90
2024-05-09T23:40:43.188Z,99.90
2024-05-09T23:43:16.993Z,99.90
2024-05-09T23:45:44.290Z,99.90
2024-05-09T23:48:14.539Z,99.90
2024-05-09T23:50:41.976Z,99.90
2024-05-09T23:53:11.781Z,99.90
2024-05-09T23:55:39.686Z,99.90
2024-05-09T23:58:11.331Z,99.90
